createdAt,value
2023-01-21T00:00:16.111Z,100601.31
2023-01-21T00:05:17.661Z,100599.47
2023-01-21T00:10:19.060Z,100606.22
2023-01-21T00:15:20.432Z,100609.97
2023-01-21T00:20:21.876Z,100607.03
2023-01-21T00:25:23.293Z,100611.47
2023-01-21T00:30:24.682Z,100608.56
2023-01-21T00:35:26.066Z,100611.03
2023-01-21T00:40:27.455Z,100606.56
2023-01-21T00:45:28.840Z,100607.44
2023-01-21T00:50:30.252Z,100610.25
2023-01-21T00:55:31.651Z,100621.09
2023-01-21T01:00:33.094Z,100622.78
2023-01-21T01:05:34.681Z,100628.25
2023-01-21T01:10:37.274Z,100628.31
2023-01-21T01:15:38.669Z,100634.56
2023-01-21T01:20:43.557Z,100625.06
2023-01-21T01:25:44.961Z,100629.94
2023-01-21T01:30:46.453Z,100617.38
2023-01-21T01:35:48.153Z,100625.94
2023-01-21T01:40:50.504Z,100627.78
2023-01-21T01:45:52.196Z,100633.72
2023-01-21T01:50:53.603Z,100642.63
2023-01-21T01:55:55.032Z,100641.56
2023-01-21T02:00:56.985Z,100654.94
2023-01-21T02:05:58.408Z,100643.81
2023-01-21T02:11:00.868Z,100647.19
2023-01-21T02:16:25.134Z,100659.16
2023-01-21T02:21:29.359Z,100670.47
2023-01-21T02:26:44.293Z,100669.22
2023-01-21T02:31:59.759Z,100673.66
2023-01-21T02:37:22.893Z,100668.63
2023-01-21T02:42:46.944Z,100676.34
2023-01-21T02:48:06.320Z,100670.66
2023-01-21T02:53:17.184Z,100674.28
2023-01-21T02:58:20.299Z,100687.94
2023-01-21T03:03:22.101Z,100687.69
2023-01-21T03:08:30.262Z,100684.31
2023-01-21T03:14:00.929Z,100675.78
2023-01-21T03:19:04.071Z,100687.53
2023-01-21T03:24:05.719Z,100693.81
2023-01-21T03:29:09.619Z,100700.72
2023-01-21T03:34:11.566Z,100706.44
2023-01-21T03:39:16.086Z,100702.25
2023-01-21T03:44:17.455Z,100709.78
2023-01-21T03:49:40.460Z,100713.56
2023-01-21T03:54:41.869Z,100715.84
2023-01-21T03:59:43.854Z,100709.41
2023-01-21T04:04:45.474Z,100716.06
2023-01-21T04:09:46.866Z,100711.63
2023-01-21T04:14:48.253Z,100718.78
2023-01-21T04:19:49.639Z,100719.94
2023-01-21T04:24:51.502Z,100720.72
2023-01-21T04:29:52.883Z,100731.38
2023-01-21T04:34:54.295Z,100730.75
2023-01-21T04:39:55.696Z,100727.69
2023-01-21T04:44:57.069Z,100731.41
2023-01-21T04:49:58.445Z,100724.03
2023-01-21T04:54:59.843Z,100720.47
2023-01-21T05:00:01.407Z,100721.38
2023-01-21T05:05:02.838Z,100729.34
2023-01-21T05:10:04.548Z,100750.13
2023-01-21T05:15:07.198Z,100747.97
2023-01-21T05:20:09.096Z,100742.16
2023-01-21T05:25:10.489Z,100754.97
2023-01-21T05:30:12.325Z,100751.78
2023-01-21T05:35:13.889Z,100758.69
2023-01-21T05:40:16.640Z,100752.03
2023-01-21T05:45:18.237Z,100754.38
2023-01-21T05:50:19.680Z,100756.44
2023-01-21T05:55:21.084Z,100754.88
2023-01-21T06:00:22.574Z,100761.44
2023-01-21T06:05:24.033Z,100756.47
2023-01-21T06:10:25.429Z,100762.13
2023-01-21T06:15:27.945Z,100756.84
2023-01-21T06:20:30.400Z,100767.94
2023-01-21T06:25:32.021Z,100765.47
2023-01-21T06:30:33.486Z,100773.25
2023-01-21T06:35:35.801Z,100772.19
2023-01-21T06:40:37.283Z,100763.53
2023-01-21T06:45:38.682Z,100760.84
2023-01-21T06:50:40.101Z,100766.34
2023-01-21T06:55:41.482Z,100771.53
2023-01-21T07:00:42.870Z,100779.91
2023-01-21T07:05:44.290Z,100782.25
2023-01-21T07:10:47.695Z,100773.72
2023-01-21T07:15:49.236Z,100770.78
2023-01-21T07:20:50.624Z,100787.50
2023-01-21T07:25:52.013Z,100778.88
2023-01-21T07:30:53.619Z,100789.44
2023-01-21T07:35:55.228Z,100789.25
2023-01-21T07:40:56.848Z,100798.84
2023-01-21T07:46:00.117Z,100798.84
2023-01-21T07:51:01.849Z,100801.81
2023-01-21T07:56:06.852Z,100798.09
2023-01-21T08:01:08.345Z,100802.88
2023-01-21T08:06:09.754Z,100797.38
2023-01-21T08:11:11.168Z,100800.31
2023-01-21T08:16:13.577Z,100788.81
2023-01-21T08:21:15.049Z,100797.25
2023-01-21T08:26:16.460Z,100804.97
2023-01-21T08:31:17.919Z,100813.53
2023-01-21T08:36:19.330Z,100805.38
2023-01-21T08:41:20.813Z,100789.25
2023-01-21T08:46:22.198Z,100796.78
2023-01-21T08:51:23.625Z,100792.78
2023-01-21T08:56:25.087Z,100799.53
2023-01-21T09:01:26.517Z,100798.09
2023-01-21T09:06:29.951Z,100802.25
2023-01-21T09:11:31.421Z,100804.50
2023-01-21T09:16:32.883Z,100815.66
2023-01-21T09:21:37.798Z,100810.00
2023-01-21T09:26:43.876Z,100802.47
2023-01-21T09:31:45.278Z,100810.22
2023-01-21T09:36:46.695Z,100813.34
2023-01-21T09:41:58.112Z,100814.41
2023-01-21T09:47:17.795Z,100808.78
2023-01-21T09:52:24.609Z,100801.78
2023-01-21T09:57:38.051Z,100802.63
2023-01-21T10:02:48.881Z,100798.66
2023-01-21T10:08:11.407Z,100802.47
2023-01-21T10:13:34.349Z,100798.66
2023-01-21T10:18:36.846Z,100790.66
2023-01-21T10:23:43.476Z,100787.72
2023-01-21T10:28:48.342Z,100786.06
2023-01-21T10:33:49.719Z,100786.06
2023-01-21T10:39:14.322Z,100774.25
2023-01-21T10:44:19.101Z,100766.75
2023-01-21T10:49:31.161Z,100773.06
2023-01-21T10:54:50.662Z,100764.63
2023-01-21T10:59:52.035Z,100757.03
2023-01-21T11:04:53.439Z,100741.69
2023-01-21T11:09:54.885Z,100746.78
2023-01-21T11:15:02.030Z,100742.38
2023-01-21T11:20:06.307Z,100745.03
2023-01-21T11:25:08.189Z,100746.09
2023-01-21T11:30:44.496Z,100738.16
2023-01-21T11:35:49.985Z,100720.53
2023-01-21T11:41:17.839Z,100716.50
2023-01-21T11:46:35.140Z,100702.19
2023-01-21T11:51:40.209Z,100694.44
2023-01-21T11:56:45.268Z,100688.38
2023-01-21T12:01:55.660Z,100684.78
2023-01-21T12:06:58.489Z,100694.78
2023-01-21T12:12:15.521Z,100687.53
2023-01-21T12:17:40.071Z,100673.19
2023-01-21T12:22:53.148Z,100678.25
2023-01-21T12:28:06.379Z,100680.94
2023-01-21T12:33:35.464Z,100686.00
2023-01-21T12:38:40.791Z,100673.06
2023-01-21T12:43:50.542Z,100667.13
2023-01-21T12:48:52.422Z,100660.38
2023-01-21T12:54:06.269Z,100649.66
2023-01-21T12:59:07.498Z,100640.28
2023-01-21T13:04:29.069Z,100629.94
2023-01-21T13:09:35.869Z,100619.25
2023-01-21T13:14:42.866Z,100607.38
2023-01-21T13:19:44.270Z,100607.66
2023-01-21T13:25:01.706Z,100588.53
2023-01-21T13:30:15.328Z,100574.25
2023-01-21T13:35:28.905Z,100575.91
2023-01-21T13:41:11.741Z,100574.03
2023-01-21T13:46:28.575Z,100584.75
2023-01-21T13:52:07.958Z,100577.56
2023-01-21T13:57:16.293Z,100566.88
2023-01-21T14:02:23.301Z,100559.56
2023-01-21T14:07:28.269Z,100555.03
2023-01-21T14:12:38.271Z,100552.41
2023-01-21T14:18:15.179Z,100537.44
2023-01-21T14:23:32.103Z,100541.25
2023-01-21T14:28:58.261Z,100547.88
2023-01-21T14:34:05.908Z,100551.75
2023-01-21T14:39:19.315Z,100542.53
2023-01-21T14:44:39.371Z,100537.72
2023-01-21T14:49:42.581Z,100541.72
2023-01-21T14:54:44.522Z,100537.47
2023-01-21T14:59:46.161Z,100541.47
2023-01-21T15:04:53.040Z,100533.91
2023-01-21T15:09:55.227Z,100529.34
2023-01-21T15:15:01.255Z,100526.56
2023-01-21T15:20:39.482Z,100529.00
2023-01-21T15:26:11.101Z,100526.13
2023-01-21T15:31:21.615Z,100531.28
2023-01-21T15:36:24.712Z,100522.78
2023-01-21T15:41:39.897Z,100521.88
2023-01-21T15:46:51.819Z,100521.72
2023-01-21T15:52:05.272Z,100529.34
2023-01-21T15:57:24.879Z,100514.19
2023-01-21T16:02:27.958Z,100518.53
2023-01-21T16:07:52.061Z,100522.09
2023-01-21T16:13:10.592Z,100514.19
2023-01-21T16:18:32.070Z,100507.28
2023-01-21T16:23:35.782Z,100510.78
2023-01-21T16:28:42.581Z,100506.09
2023-01-21T16:33:44.104Z,100507.00
2023-01-21T16:38:45.898Z,100503.72
2023-01-21T16:43:47.189Z,100505.75
2023-01-21T16:48:52.361Z,100508.25
2023-01-21T16:53:53.829Z,100516.03
2023-01-21T16:58:58.041Z,100509.78
2023-01-21T17:04:01.149Z,100505.75
2023-01-21T17:09:04.933Z,100511.19
2023-01-21T17:14:09.416Z,100515.44
2023-01-21T17:19:22.976Z,100513.59
2023-01-21T17:24:28.646Z,100517.97
2023-01-21T17:29:31.425Z,100510.34
2023-01-21T17:34:34.609Z,100514.16
2023-01-21T17:39:48.210Z,100516.78
2023-01-21T17:44:54.890Z,100524.72
2023-01-21T17:50:12.497Z,100530.75
2023-01-21T17:55:26.618Z,100529.25
2023-01-21T18:00:37.837Z,100536.03
2023-01-21T18:05:39.366Z,100545.75
2023-01-21T18:10:40.776Z,100543.34
2023-01-21T18:15:43.913Z,100550.25
2023-01-21T18:20:45.819Z,100550.72
2023-01-21T18:25:48.779Z,100549.56
2023-01-21T18:30:50.822Z,100551.38
2023-01-21T18:35:52.294Z,100543.97
2023-01-21T18:40:54.720Z,100553.19
2023-01-21T18:45:56.168Z,100541.97
2023-01-21T18:50:57.624Z,100549.31
2023-01-21T18:55:59.094Z,100549.88
2023-01-21T19:01:08.040Z,100550.25
2023-01-21T19:06:16.434Z,100560.16
2023-01-21T19:11:17.945Z,100552.03
2023-01-21T19:16:19.849Z,100545.00
2023-01-21T19:21:21.321Z,100550.00
2023-01-21T19:26:22.777Z,100545.25
2023-01-21T19:31:24.304Z,100550.28
2023-01-21T19:36:25.751Z,100557.44
2023-01-21T19:41:27.171Z,100560.34
2023-01-21T19:46:28.749Z,100560.81
2023-01-21T19:51:32.091Z,100573.44
2023-01-21T19:56:33.708Z,100587.94
2023-01-21T20:01:35.169Z,100587.66
2023-01-21T20:06:39.126Z,100599.44
2023-01-21T20:11:40.770Z,100599.47
2023-01-21T20:16:52.119Z,100606.22
2023-01-21T20:22:02.154Z,100609.13
2023-01-21T20:27:05.238Z,100618.56
2023-01-21T20:32:09.941Z,100622.13
2023-01-21T20:37:13.592Z,100620.91
2023-01-21T20:42:14.973Z,100628.44
2023-01-21T20:47:23.059Z,100629.22
2023-01-21T20:52:33.961Z,100634.69
2023-01-21T20:57:35.330Z,100646.13
2023-01-21T21:02:36.774Z,100650.31
2023-01-21T21:07:38.178Z,100651.94
2023-01-21T21:12:39.562Z,100663.94
2023-01-21T21:17:41.234Z,100670.47
2023-01-21T21:22:42.607Z,100665.47
2023-01-21T21:27:44.337Z,100667.13
2023-01-21T21:32:45.752Z,100671.28
2023-01-21T21:37:47.166Z,100669.84
2023-01-21T21:43:07.018Z,100676.38
2023-01-21T21:48:35.603Z,100680.78
2023-01-21T21:53:37.499Z,100689.31
2023-01-21T21:58:38.962Z,100686.00
2023-01-21T22:03:40.427Z,100687.09
2023-01-21T22:08:42.154Z,100683.09
2023-01-21T22:13:44.341Z,100695.63
2023-01-21T22:18:45.833Z,100689.31
2023-01-21T22:23:47.538Z,100698.44
2023-01-21T22:28:49.039Z,100692.56
2023-01-21T22:33:50.533Z,100705.97
2023-01-21T22:38:52.669Z,100708.44
2023-01-21T22:43:54.142Z,100715.84
2023-01-21T22:48:55.552Z,100716.06
2023-01-21T22:53:56.974Z,100719.63
2023-01-21T22:58:58.390Z,100715.41
2023-01-21T23:03:59.810Z,100716.50
2023-01-21T23:09:01.210Z,100720.09
2023-01-21T23:14:02.617Z,100725.78
2023-01-21T23:19:04.007Z,100729.06
2023-01-21T23:24:06.301Z,100726.97
2023-01-21T23:29:07.726Z,100720.72
2023-01-21T23:34:11.492Z,100730.81
2023-01-21T23:39:12.857Z,100729.50
2023-01-21T23:44:14.268Z,100738.28
2023-01-21T23:49:18.566Z,100736.47
2023-01-21T23:54:20.062Z,100740.44
2023-01-21T23:59:21.489Z,100739.59
